Time;durP1;ratioP1;P1;durP2;ratioP2;P2;SDS_P1;SDS_P2;PMS_P1;PMS_P2;Temp;Humidity;BMP_temperature;BMP_pressure;BME280_temperature;BME280_humidity;BME280_pressure;Samples;Min_cycle;Max_cycle;Signal;HPM_P1;HPM_P2
2023/08/01 00:02:12;;;;;;;;;;;16.70;99.90;;;;;;5066036;28;19913;-91
2023/08/01 00:04:42;;;;;;;;;;;16.60;99.90;;;;;;5063278;28;19916;-90
2023/08/01 00:07:08;;;;;;;;;;;16.70;99.90;;;;;;5082355;28;19959;-91
2023/08/01 00:09:37;;;;;;;;;;;16.60;99.90;;;;;;5059527;28;19999;-91
2023/08/01 00:12:12;;;;;;;;;;;16.60;99.90;;;;;;5061923;28;19924;-91
2023/08/01 00:14:37;;;;;;;;;;;16.60;99.90;;;;;;5065312;28;19931;-90
2023/08/01 00:17:08;;;;;;;;;;;16.70;99.90;;;;;;5062822;28;19908;-92
2023/08/01 00:19:38;;;;;;;;;;;16.70;99.90;;;;;;5063894;28;20182;-92
2023/08/01 00:22:07;;;;;;;;;;;16.70;99.90;;;;;;5064459;28;19908;-92
2023/08/01 00:24:38;;;;;;;;;;;16.70;99.90;;;;;;5066502;28;19912;-91
2023/08/01 00:27:10;;;;;;;;;;;16.70;99.90;;;;;;5063421;28;19931;-93
2023/08/01 00:29:39;;;;;;;;;;;16.70;99.90;;;;;;5067312;28;19995;-91
2023/08/01 00:32:05;;;;;;;;;;;16.60;99.90;;;;;;5067431;28;19912;-92
2023/08/01 00:34:51;;;;;;;;;;;16.60;99.90;;;;;;5062117;28;19917;-93
2023/08/01 00:37:17;;;;;;;;;;;16.50;99.90;;;;;;5055355;28;20360;-92
2023/08/01 00:39:43;;;;;;;;;;;16.50;99.90;;;;;;5081934;28;19921;-93
2023/08/01 00:42:10;;;;;;;;;;;16.40;99.90;;;;;;5066407;28;19916;-92
2023/08/01 00:44:43;;;;;;;;;;;16.30;99.90;;;;;;5067453;28;20333;-93
2023/08/01 00:47:14;;;;;;;;;;;16.30;99.90;;;;;;5068994;28;19909;-93
2023/08/01 00:49:40;;;;;;;;;;;16.20;99.90;;;;;;5065246;28;19908;-94
2023/08/01 00:52:07;;;;;;;;;;;16.20;99.90;;;;;;5069365;28;19915;-94
2023/08/01 00:54:49;;;;;;;;;;;16.10;99.90;;;;;;5069020;28;19917;-94
2023/08/01 00:57:15;;;;;;;;;;;16.10;99.90;;;;;;5082527;28;19948;-94
2023/08/01 00:59:40;;;;;;;;;;;16.10;99.90;;;;;;5067818;28;20413;-94
2023/08/01 01:02:07;;;;;;;;;;;16.10;99.90;;;;;;5062764;28;20041;-94
2023/08/01 01:04:35;;;;;;;;;;;16.00;99.90;;;;;;5070153;28;19920;-95
2023/08/01 01:07:02;;;;;;;;;;;16.00;99.90;;;;;;5070278;28;20003;-95
2023/08/01 01:09:31;;;;;;;;;;;16.00;99.90;;;;;;5070288;28;19944;-94
2023/08/01 01:12:00;;;;;;;;;;;16.00;99.90;;;;;;5068741;28;20276;-94
2023/08/01 01:14:26;;;;;;;;;;;16.00;99.90;;;;;;5064729;28;20271;-95
2023/08/01 01:16:53;;;;;;;;;;;16.00;99.90;;;;;;5069597;28;19915;-95
2023/08/01 01:19:22;;;;;;;;;;;16.10;99.90;;;;;;5066209;28;19974;-95
2023/08/01 01:21:49;;;;;;;;;;;16.10;99.90;;;;;;5065274;28;20352;-94
2023/08/01 01:24:15;;;;;;;;;;;16.10;99.90;;;;;;5056239;28;20427;-95
2023/08/01 01:26:41;;;;;;;;;;;16.10;99.90;;;;;;5064052;28;19908;-95
2023/08/01 01:29:08;;;;;;;;;;;16.20;99.90;;;;;;5069147;28;20229;-94
2023/08/01 01:31:37;;;;;;;;;;;16.20;99.90;;;;;;5071358;28;20550;-94
2023/08/01 01:34:03;;;;;;;;;;;16.20;99.90;;;;;;5070520;28;20393;-95
2023/08/01 01:36:29;;;;;;;;;;;16.20;99.90;;;;;;5069476;28;19920;-94
2023/08/01 01:38:54;;;;;;;;;;;16.20;99.90;;;;;;5050704;28;19985;-96
2023/08/01 01:41:26;;;;;;;;;;;16.20;99.90;;;;;;5066408;28;19908;-95
2023/08/01 01:43:52;;;;;;;;;;;16.20;99.90;;;;;;5068435;28;19951;-95
2023/08/01 01:46:17;;;;;;;;;;;16.10;99.90;;;;;;5057759;28;19951;-95
2023/08/01 01:48:45;;;;;;;;;;;16.20;99.90;;;;;;5062503;28;19920;-94
2023/08/01 01:51:11;;;;;;;;;;;16.20;99.90;;;;;;5063766;28;20041;-95
2023/08/01 01:53:37;;;;;;;;;;;16.20;99.90;;;;;;5066388;28;19909;-94
2023/08/01 01:56:13;;;;;;;;;;;16.10;99.90;;;;;;5068079;28;19908;-94
2023/08/01 01:58:39;;;;;;;;;;;16.10;99.90;;;;;;5068831;28;20256;-94
2023/08/01 02:01:04;;;;;;;;;;;16.00;99.90;;;;;;5066838;28;19909;-93
2023/08/01 02:03:30;;;;;;;;;;;15.90;99.90;;;;;;5065558;28;19908;-94
2023/08/01 02:05:55;;;;;;;;;;;15.90;99.90;;;;;;5067301;28;19908;-93
2023/08/01 02:08:26;;;;;;;;;;;15.80;99.90;;;;;;5085056;28;19909;-93
2023/08/01 02:10:51;;;;;;;;;;;15.70;99.90;;;;;;5071267;28;19914;-93
2023/08/01 02:13:17;;;;;;;;;;;15.70;99.90;;;;;;5081373;28;20366;-93
2023/08/01 02:15:45;;;;;;;;;;;15.70;99.90;;;;;;5068026;28;19916;-95
2023/08/01 02:18:11;;;;;;;;;;;15.60;99.90;;;;;;5069413;28;19915;-94
2023/08/01 02:20:37;;;;;;;;;;;15.60;99.90;;;;;;5052916;28;20420;-94
2023/08/01 02:23:09;;;;;;;;;;;15.60;99.90;;;;;;5071675;28;19925;-94
2023/08/01 02:25:38;;;;;;;;;;;15.60;99.90;;;;;;5067942;28;20360;-94
2023/08/01 02:28:04;;;;;;;;;;;15.60;99.90;;;;;;5070410;28;19908;-94
2023/08/01 02:30:29;;;;;;;;;;;15.60;99.90;;;;;;5067862;28;19908;-95
2023/08/01 02:32:57;;;;;;;;;;;15.50;99.90;;;;;;5072331;28;19920;-95
2023/08/01 02:35:22;;;;;;;;;;;15.50;99.90;;;;;;5071161;28;19982;-93
2023/08/01 02:37:48;;;;;;;;;;;15.50;99.90;;;;;;5073464;28;19916;-93
2023/08/01 02:40:13;;;;;;;;;;;15.40;99.90;;;;;;5074869;28;19908;-93
2023/08/01 02:42:39;;;;;;;;;;;15.50;99.90;;;;;;5074132;28;20357;-94
2023/08/01 02:45:05;;;;;;;;;;;15.40;99.90;;;;;;5075059;28;19919;-94
2023/08/01 02:47:53;;;;;;;;;;;15.40;99.90;;;;;;5073291;28;20221;-93
2023/08/01 02:50:18;;;;;;;;;;;15.40;99.90;;;;;;5074743;28;19971;-92
2023/08/01 02:52:45;;;;;;;;;;;15.40;99.90;;;;;;5070001;28;19909;-92
2023/08/01 02:55:11;;;;;;;;;;;15.40;99.90;;;;;;5071302;28;19932;-93
2023/08/01 02:57:36;;;;;;;;;;;15.40;99.90;;;;;;5078733;28;19908;-94
2023/08/01 03:00:05;;;;;;;;;;;15.40;99.90;;;;;;5071939;28;19951;-93
2023/08/01 03:02:32;;;;;;;;;;;15.40;99.90;;;;;;5064608;28;19954;-94
2023/08/01 03:04:57;;;;;;;;;;;15.40;99.90;;;;;;5070031;28;19908;-93
2023/08/01 03:07:23;;;;;;;;;;;15.40;99.90;;;;;;5073865;28;19916;-93
2023/08/01 03:09:49;;;;;;;;;;;15.40;99.90;;;;;;5067379;28;19916;-93
2023/08/01 03:12:14;;;;;;;;;;;15.40;99.90;;;;;;5068990;28;19918;-94
2023/08/01 03:14:43;;;;;;;;;;;15.50;99.90;;;;;;5069654;28;19924;-93
2023/08/01 03:17:09;;;;;;;;;;;15.50;99.90;;;;;;5071151;28;19909;-93
2023/08/01 03:19:39;;;;;;;;;;;15.50;99.90;;;;;;5069138;28;20388;-93
2023/08/01 03:22:05;;;;;;;;;;;15.60;99.90;;;;;;5069638;28;20340;-94
2023/08/01 03:24:31;;;;;;;;;;;15.60;99.90;;;;;;5069619;28;19970;-92
2023/08/01 03:26:59;;;;;;;;;;;15.60;99.90;;;;;;5074030;28;19916;-93
2023/08/01 03:29:35;;;;;;;;;;;15.70;99.90;;;;;;5073191;28;20267;-93
2023/08/01 03:32:00;;;;;;;;;;;15.70;99.90;;;;;;5065717;28;20049;-94
2023/08/01 03:34:28;;;;;;;;;;;15.70;99.90;;;;;;5071984;28;19923;-94
2023/08/01 03:36:54;;;;;;;;;;;15.80;99.90;;;;;;5070673;28;19920;-95
2023/08/01 03:39:21;;;;;;;;;;;15.80;99.90;;;;;;5072053;28;19908;-93
2023/08/01 03:41:47;;;;;;;;;;;15.80;99.90;;;;;;5073635;28;19962;-93
2023/08/01 03:44:28;;;;;;;;;;;15.90;99.90;;;;;;5073257;28;19988;-93
2023/08/01 03:46:55;;;;;;;;;;;15.90;99.90;;;;;;5066305;28;19962;-93
2023/08/01 03:49:24;;;;;;;;;;;15.90;99.90;;;;;;5068259;28;20352;-94
2023/08/01 03:51:54;;;;;;;;;;;15.90;99.90;;;;;;5070395;28;19916;-94
2023/08/01 03:54:35;;;;;;;;;;;15.90;99.90;;;;;;5070007;28;19916;-93
2023/08/01 03:57:05;;;;;;;;;;;15.80;99.90;;;;;;5073248;28;20356;-92
2023/08/01 03:59:33;;;;;;;;;;;15.80;99.90;;;;;;5068322;28;19916;-93
2023/08/01 04:02:03;;;;;;;;;;;15.80;99.90;;;;;;5068280;28;19915;-92
2023/08/01 04:04:31;;;;;;;;;;;15.80;99.90;;;;;;5069802;28;19915;-92
2023/08/01 04:06:57;;;;;;;;;;;15.80;99.90;;;;;;5064028;28;19975;-91
2023/08/01 04:09:25;;;;;;;;;;;15.90;99.90;;;;;;5071024;28;19908;-90
2023/08/01 04:11:52;;;;;;;;;;;15.90;99.90;;;;;;5071653;28;20364;-91
2023/08/01 04:14:19;;;;;;;;;;;15.90;99.90;;;;;;5073115;28;19924;-91
2023/08/01 04:16:48;;;;;;;;;;;15.90;99.90;;;;;;5068587;28;19948;-92
2023/08/01 04:19:15;;;;;;;;;;;15.90;99.90;;;;;;5070238;28;19997;-92
2023/08/01 04:21:43;;;;;;;;;;;15.90;99.90;;;;;;5069947;28;19909;-93
2023/08/01 04:24:10;;;;;;;;;;;15.90;99.90;;;;;;5066639;28;20267;-92
2023/08/01 04:26:40;;;;;;;;;;;15.90;99.90;;;;;;5069972;28;20303;-92
2023/08/01 04:29:09;;;;;;;;;;;15.90;99.90;;;;;;5070442;28;19913;-90
2023/08/01 04:31:45;;;;;;;;;;;16.00;99.90;;;;;;5071938;28;19919;-91
2023/08/01 04:34:15;;;;;;;;;;;16.00;99.90;;;;;;5068708;28;19943;-93
2023/08/01 04:36:43;;;;;;;;;;;16.00;99.90;;;;;;5070262;28;19935;-92
2023/08/01 04:39:13;;;;;;;;;;;16.00;99.90;;;;;;5067633;28;19908;-91
2023/08/01 04:41:38;;;;;;;;;;;16.00;99.90;;;;;;5072007;28;19908;-91
2023/08/01 04:44:06;;;;;;;;;;;16.00;99.90;;;;;;5066675;28;19927;-93
2023/08/01 04:46:32;;;;;;;;;;;16.00;99.90;;;;;;5083277;28;19908;-91
2023/08/01 04:49:03;;;;;;;;;;;15.90;99.90;;;;;;5072202;28;19965;-90
2023/08/01 04:51:51;;;;;;;;;;;15.90;99.90;;;;;;5069724;28;20391;-91
2023/08/01 04:54:19;;;;;;;;;;;15.90;99.90;;;;;;5061258;28;19939;-90
2023/08/01 04:56:54;;;;;;;;;;;15.90;99.90;;;;;;5063976;28;20424;-92
2023/08/01 04:59:22;;;;;;;;;;;16.00;99.90;;;;;;5067108;28;20518;-92
2023/08/01 05:01:51;;;;;;;;;;;16.00;99.90;;;;;;5067415;28;19924;-91
2023/08/01 05:04:27;;;;;;;;;;;16.00;99.90;;;;;;5068681;28;20367;-92
2023/08/01 05:06:52;;;;;;;;;;;16.00;99.90;;;;;;5070885;28;19947;-92
2023/08/01 05:09:24;;;;;;;;;;;16.00;99.90;;;;;;5072126;28;19912;-92
2023/08/01 05:11:53;;;;;;;;;;;16.00;99.90;;;;;;5067879;28;20252;-92
2023/08/01 05:14:22;;;;;;;;;;;16.00;99.90;;;;;;5068397;28;20273;-92
2023/08/01 05:16:48;;;;;;;;;;;16.10;99.90;;;;;;5071655;28;20390;-92
2023/08/01 05:19:19;;;;;;;;;;;16.10;99.90;;;;;;5062558;28;19909;-92
2023/08/01 05:21:48;;;;;;;;;;;16.10;99.90;;;;;;5067409;28;19920;-92
2023/08/01 05:24:19;;;;;;;;;;;16.00;99.90;;;;;;5071034;28;19909;-93
2023/08/01 05:26:51;;;;;;;;;;;16.10;99.90;;;;;;5053596;28;19920;-93
2023/08/01 05:29:17;;;;;;;;;;;16.10;99.90;;;;;;5067940;28;20316;-91
2023/08/01 05:31:44;;;;;;;;;;;16.20;99.90;;;;;;5070955;28;19993;-92
2023/08/01 05:34:12;;;;;;;;;;;16.20;99.90;;;;;;5070819;28;20050;-91
2023/08/01 05:36:39;;;;;;;;;;;16.30;99.90;;;;;;5068266;28;19916;-91
2023/08/01 05:39:20;;;;;;;;;;;16.40;99.90;;;;;;5051758;28;20220;-92
2023/08/01 05:41:45;;;;;;;;;;;16.40;99.90;;;;;;5067948;28;20017;-93
2023/08/01 05:44:17;;;;;;;;;;;16.50;99.90;;;;;;5069502;28;19948;-92
2023/08/01 05:46:44;;;;;;;;;;;16.50;99.90;;;;;;5066352;28;19915;-92
2023/08/01 05:49:13;;;;;;;;;;;16.50;99.90;;;;;;5052685;28;20099;-91
2023/08/01 05:51:46;;;;;;;;;;;16.50;99.90;;;;;;5064336;28;19978;-92
2023/08/01 05:54:15;;;;;;;;;;;16.50;99.90;;;;;;5071223;28;19999;-92
2023/08/01 05:56:47;;;;;;;;;;;16.50;99.90;;;;;;5081793;28;19919;-91
2023/08/01 05:59:17;;;;;;;;;;;16.60;99.90;;;;;;5067349;28;19917;-92
2023/08/01 06:01:54;;;;;;;;;;;16.70;99.90;;;;;;5083603;28;19947;-91
2023/08/01 06:04:24;;;;;;;;;;;16.80;99.90;;;;;;5071183;28;19908;-92
2023/08/01 06:06:50;;;;;;;;;;;16.90;99.90;;;;;;5065938;28;19916;-92
2023/08/01 06:09:23;;;;;;;;;;;17.00;99.90;;;;;;5067203;28;19908;-91
2023/08/01 06:11:51;;;;;;;;;;;16.90;99.90;;;;;;5085164;28;19936;-91
2023/08/01 06:14:18;;;;;;;;;;;16.90;99.90;;;;;;5074819;28;19916;-91
2023/08/01 06:16:47;;;;;;;;;;;16.90;99.90;;;;;;5064721;28;19913;-91
2023/08/01 06:19:16;;;;;;;;;;;16.90;99.90;;;;;;5053029;28;20348;-92
2023/08/01 06:21:45;;;;;;;;;;;16.80;99.90;;;;;;5066303;28;21996;-91
2023/08/01 06:24:14;;;;;;;;;;;16.90;99.90;;;;;;5069142;28;19927;-92
2023/08/01 06:26:47;;;;;;;;;;;16.90;99.90;;;;;;5065594;28;19908;-90
2023/08/01 06:29:13;;;;;;;;;;;16.90;99.90;;;;;;5068240;28;19913;-93
2023/08/01 06:32:02;;;;;;;;;;;16.90;99.90;;;;;;5067297;28;20279;-91
2023/08/01 06:34:35;;;;;;;;;;;17.00;99.90;;;;;;5068084;28;20012;-91
2023/08/01 06:37:21;;;;;;;;;;;17.00;99.90;;;;;;5069235;28;19916;-92
2023/08/01 06:39:47;;;;;;;;;;;17.10;99.90;;;;;;5076781;28;20341;-91
2023/08/01 06:42:15;;;;;;;;;;;17.10;99.90;;;;;;5066756;28;19916;-92
2023/08/01 06:44:49;;;;;;;;;;;17.20;99.90;;;;;;5069854;28;19995;-89
2023/08/01 06:47:14;;;;;;;;;;;17.20;99.90;;;;;;5065147;28;19919;-90
2023/08/01 06:49:40;;;;;;;;;;;17.20;99.90;;;;;;5063894;28;19916;-90
2023/08/01 06:52:11;;;;;;;;;;;17.20;99.90;;;;;;5071291;28;19916;-90
2023/08/01 06:54:43;;;;;;;;;;;17.20;99.90;;;;;;5068155;28;20383;-90
2023/08/01 06:57:12;;;;;;;;;;;17.20;99.90;;;;;;5067339;28;19999;-90
2023/08/01 07:00:08;;;;;;;;;;;17.30;99.90;;;;;;5068407;28;20032;-90
2023/08/01 07:02:44;;;;;;;;;;;17.40;99.90;;;;;;5056571;28;19916;-91
2023/08/01 07:05:27;;;;;;;;;;;17.50;99.90;;;;;;5070539;28;19909;-92
2023/08/01 07:07:54;;;;;;;;;;;17.50;99.90;;;;;;5068841;28;19908;-90
2023/08/01 07:10:20;;;;;;;;;;;17.50;99.90;;;;;;5067912;28;19945;-91
2023/08/01 07:12:48;;;;;;;;;;;17.60;99.90;;;;;;5061203;28;19959;-93
2023/08/01 07:15:17;;;;;;;;;;;17.60;99.90;;;;;;5067950;28;19916;-90
2023/08/01 07:17:46;;;;;;;;;;;17.60;99.90;;;;;;5068899;28;19909;-91
2023/08/01 07:20:12;;;;;;;;;;;17.60;99.90;;;;;;5086162;28;19915;-92
2023/08/01 07:22:40;;;;;;;;;;;17.60;99.90;;;;;;5070136;28;19983;-91
2023/08/01 07:25:08;;;;;;;;;;;17.70;99.90;;;;;;5066923;28;19912;-91
2023/08/01 07:27:37;;;;;;;;;;;17.70;99.90;;;;;;5071966;28;19908;-92
2023/08/01 07:30:16;;;;;;;;;;;17.80;99.90;;;;;;5082746;28;19922;-91
2023/08/01 07:32:48;;;;;;;;;;;17.80;99.90;;;;;;5052274;28;20778;-91
2023/08/01 07:35:14;;;;;;;;;;;17.80;99.90;;;;;;5075862;28;19939;-92
2023/08/01 07:37:40;;;;;;;;;;;17.90;99.90;;;;;;5064677;28;19916;-91
2023/08/01 07:40:06;;;;;;;;;;;18.00;99.90;;;;;;5073809;28;20477;-92
2023/08/01 07:42:34;;;;;;;;;;;18.10;99.90;;;;;;5075150;28;19919;-93
2023/08/01 07:45:26;;;;;;;;;;;18.10;99.90;;;;;;5071702;28;19916;-91
2023/08/01 07:47:56;;;;;;;;;;;18.20;99.90;;;;;;5065917;28;19955;-92
2023/08/01 07:50:47;;;;;;;;;;;18.20;99.90;;;;;;5072857;28;20401;-93
2023/08/01 07:53:23;;;;;;;;;;;18.20;99.90;;;;;;5067640;28;20403;-93
2023/08/01 07:55:55;;;;;;;;;;;18.20;99.90;;;;;;5067425;28;19917;-94
2023/08/01 07:58:26;;;;;;;;;;;18.30;99.90;;;;;;5070962;28;22002;-94
2023/08/01 08:01:02;;;;;;;;;;;18.40;99.90;;;;;;5073151;28;19908;-95
2023/08/01 08:03:29;;;;;;;;;;;18.60;99.90;;;;;;5068032;28;19908;-95
2023/08/01 08:05:58;;;;;;;;;;;18.70;99.90;;;;;;5064674;28;19909;-95
2023/08/01 08:08:36;;;;;;;;;;;18.90;99.90;;;;;;5067156;28;20257;-95
2023/08/01 08:11:10;;;;;;;;;;;19.00;99.90;;;;;;5068512;28;19909;-90
2023/08/01 08:13:36;;;;;;;;;;;18.90;99.90;;;;;;5069730;28;19916;-92
2023/08/01 08:16:07;;;;;;;;;;;18.50;99.90;;;;;;5064898;28;20272;-88
2023/08/01 08:18:43;;;;;;;;;;;18.10;99.90;;;;;;5065817;28;19912;-90
2023/08/01 08:21:08;;;;;;;;;;;17.60;99.90;;;;;;5065674;28;19952;-89
2023/08/01 08:23:34;;;;;;;;;;;17.30;99.90;;;;;;5067969;28;19927;-90
2023/08/01 08:25:59;;;;;;;;;;;17.20;99.90;;;;;;5070404;28;19915;-90
2023/08/01 08:28:33;;;;;;;;;;;17.10;99.90;;;;;;5064333;28;19936;-89
2023/08/01 08:30:59;;;;;;;;;;;17.00;99.90;;;;;;5068220;28;19909;-89
2023/08/01 08:33:29;;;;;;;;;;;16.90;99.90;;;;;;5064564;28;20383;-89
2023/08/01 08:35:55;;;;;;;;;;;17.00;99.90;;;;;;5068085;28;19951;-89
2023/08/01 08:38:26;;;;;;;;;;;17.10;99.90;;;;;;5065262;28;22234;-89
2023/08/01 08:40:54;;;;;;;;;;;17.20;99.90;;;;;;5069778;28;19916;-90
2023/08/01 08:43:22;;;;;;;;;;;17.30;99.90;;;;;;5065589;28;19916;-87
2023/08/01 08:45:54;;;;;;;;;;;17.40;99.90;;;;;;5066272;28;20009;-89
2023/08/01 08:48:19;;;;;;;;;;;17.50;99.90;;;;;;5066641;28;20046;-89
2023/08/01 08:50:52;;;;;;;;;;;17.50;99.90;;;;;;5066529;28;20010;-90
2023/08/01 08:53:18;;;;;;;;;;;17.70;99.90;;;;;;5067906;28;19995;-91
2023/08/01 08:55:44;;;;;;;;;;;17.70;99.90;;;;;;5067533;28;20007;-90
2023/08/01 08:58:15;;;;;;;;;;;17.80;99.90;;;;;;5071432;28;19944;-90
2023/08/01 09:00:57;;;;;;;;;;;18.00;99.90;;;;;;5064730;28;19916;-91
2023/08/01 09:03:46;;;;;;;;;;;18.10;99.90;;;;;;5067518;28;19938;-92
2023/08/01 09:06:16;;;;;;;;;;;18.10;99.90;;;;;;5065793;28;19908;-89
2023/08/01 09:09:04;;;;;;;;;;;18.20;99.90;;;;;;5067903;28;19916;-92
2023/08/01 09:11:49;;;;;;;;;;;18.30;99.90;;;;;;5068243;28;19916;-92
2023/08/01 09:14:20;;;;;;;;;;;18.40;99.90;;;;;;5068631;28;20326;-92
2023/08/01 09:16:52;;;;;;;;;;;18.50;99.90;;;;;;5083878;28;19967;-91
2023/08/01 09:19:30;;;;;;;;;;;18.60;99.90;;;;;;5060621;28;20359;-92
2023/08/01 09:21:55;;;;;;;;;;;18.70;99.90;;;;;;5066043;28;19932;-92
2023/08/01 09:24:27;;;;;;;;;;;18.70;99.90;;;;;;5065147;28;19920;-91
2023/08/01 09:27:14;;;;;;;;;;;18.90;99.90;;;;;;5065489;28;19962;-96
2023/08/01 09:29:49;;;;;;;;;;;19.00;99.90;;;;;;5074646;28;19915;-93
2023/08/01 09:32:26;;;;;;;;;;;19.30;99.90;;;;;;5057854;28;20245;-91
2023/08/01 09:35:10;;;;;;;;;;;19.30;99.90;;;;;;5057436;28;19924;-91
2023/08/01 09:37:42;;;;;;;;;;;19.30;99.90;;;;;;5058022;28;19933;-92
2023/08/01 09:40:21;;;;;;;;;;;19.40;99.90;;;;;;5059818;28;19921;-92
2023/08/01 09:42:56;;;;;;;;;;;19.60;99.90;;;;;;5051328;28;19916;-93
2023/08/01 09:45:23;;;;;;;;;;;19.60;99.90;;;;;;5072860;28;19921;-87
2023/08/01 09:47:52;;;;;;;;;;;19.90;99.90;;;;;;5063207;28;19917;-91
2023/08/01 09:50:22;;;;;;;;;;;20.20;99.90;;;;;;5058779;28;20315;-90
2023/08/01 09:52:54;;;;;;;;;;;20.30;99.90;;;;;;5060075;28;19960;-92
2023/08/01 09:55:33;;;;;;;;;;;20.40;99.90;;;;;;5060681;28;19921;-88
2023/08/01 09:58:01;;;;;;;;;;;21.00;99.90;;;;;;5063284;28;19909;-92
2023/08/01 10:00:31;;;;;;;;;;;21.80;99.90;;;;;;5066585;28;19912;-94
2023/08/01 10:03:06;;;;;;;;;;;22.20;99.90;;;;;;5067311;28;20370;-92
2023/08/01 10:05:34;;;;;;;;;;;22.20;99.90;;;;;;5064933;28;20395;-94
2023/08/01 10:08:08;;;;;;;;;;;22.30;99.90;;;;;;5063453;28;19915;-88
2023/08/01 10:10:40;;;;;;;;;;;22.40;99.90;;;;;;5055579;28;19917;-86
2023/08/01 10:13:15;;;;;;;;;;;22.50;99.90;;;;;;5068375;28;19971;-88
2023/08/01 10:15:44;;;;;;;;;;;22.40;99.90;;;;;;5058071;28;20332;-88
2023/08/01 10:18:26;;;;;;;;;;;22.10;99.90;;;;;;5055412;28;20344;-89
2023/08/01 10:20:59;;;;;;;;;;;22.10;99.90;;;;;;5047436;28;19920;-87
2023/08/01 10:23:26;;;;;;;;;;;22.00;99.90;;;;;;5063681;28;20336;-96
2023/08/01 10:25:55;;;;;;;;;;;21.90;99.90;;;;;;5062949;28;19912;-90
2023/08/01 10:28:41;;;;;;;;;;;22.00;99.90;;;;;;5055091;28;19943;-91
2023/08/01 10:31:17;;;;;;;;;;;22.10;99.90;;;;;;5054525;28;19916;-90
2023/08/01 10:33:53;;;;;;;;;;;22.50;99.90;;;;;;5055985;28;19927;-92
2023/08/01 10:36:22;;;;;;;;;;;23.40;99.90;;;;;;5054460;28;19927;-90
2023/08/01 10:38:58;;;;;;;;;;;24.20;99.90;;;;;;5058576;28;19921;-92
2023/08/01 10:41:31;;;;;;;;;;;24.30;99.90;;;;;;5059260;28;19920;-89
2023/08/01 10:44:08;;;;;;;;;;;24.90;99.90;;;;;;5054469;28;19920;-90
2023/08/01 10:46:53;;;;;;;;;;;24.90;99.90;;;;;;5060149;28;19909;-93
2023/08/01 10:49:37;;;;;;;;;;;24.20;99.90;;;;;;5054362;28;19913;-93
2023/08/01 10:52:07;;;;;;;;;;;24.20;99.90;;;;;;5057005;28;19908;-93
2023/08/01 10:54:34;;;;;;;;;;;23.90;99.90;;;;;;5060351;28;19968;-92
2023/08/01 10:57:02;;;;;;;;;;;24.10;99.90;;;;;;5062318;28;19939;-90
2023/08/01 10:59:44;;;;;;;;;;;24.40;99.90;;;;;;5067558;28;20035;-94
2023/08/01 11:02:31;;;;;;;;;;;25.00;99.90;;;;;;5067343;28;19909;-94
2023/08/01 11:04:58;;;;;;;;;;;25.30;99.90;;;;;;5065967;28;20355;-95
2023/08/01 11:07:35;;;;;;;;;;;25.60;99.90;;;;;;5064248;28;19999;-93
2023/08/01 11:10:07;;;;;;;;;;;25.80;99.90;;;;;;5060440;28;19917;-89
2023/08/01 11:12:39;;;;;;;;;;;25.80;99.90;;;;;;5057338;28;19970;-92
2023/08/01 11:15:15;;;;;;;;;;;25.90;99.90;;;;;;5054301;28;19931;-84
2023/08/01 11:18:03;;;;;;;;;;;26.00;99.90;;;;;;5062354;28;19952;-92
2023/08/01 11:20:31;;;;;;;;;;;25.80;99.90;;;;;;5057957;28;19908;-93
2023/08/01 11:23:04;;;;;;;;;;;25.90;99.90;;;;;;5057388;28;20383;-87
2023/08/01 11:25:45;;;;;;;;;;;25.90;99.90;;;;;;5057109;28;19978;-87
2023/08/01 11:28:15;;;;;;;;;;;26.10;99.90;;;;;;5047561;28;19955;-86
2023/08/01 11:30:46;;;;;;;;;;;26.10;99.90;;;;;;5059912;28;21850;-87
2023/08/01 11:33:26;;;;;;;;;;;25.70;99.90;;;;;;5057356;28;19917;-86
2023/08/01 11:35:59;;;;;;;;;;;25.60;99.90;;;;;;5057953;28;19920;-84
2023/08/01 11:38:33;;;;;;;;;;;25.40;99.90;;;;;;5055792;28;19951;-89
2023/08/01 11:41:06;;;;;;;;;;;25.20;99.90;;;;;;5049879;28;20310;-88
2023/08/01 11:43:39;;;;;;;;;;;24.90;99.90;;;;;;5060849;28;19917;-88
2023/08/01 11:46:10;;;;;;;;;;;24.50;99.90;;;;;;5057324;28;19923;-88
2023/08/01 11:48:51;;;;;;;;;;;24.80;99.90;;;;;;5057799;28;19938;-88
2023/08/01 11:51:17;;;;;;;;;;;25.30;99.90;;;;;;5058575;28;19916;-90
2023/08/01 11:53:48;;;;;;;;;;;25.50;99.90;;;;;;5057818;28;19919;-89
2023/08/01 11:56:26;;;;;;;;;;;25.80;99.90;;;;;;5057437;28;19932;-87
2023/08/01 11:58:55;;;;;;;;;;;25.90;99.90;;;;;;5052254;28;19989;-88
2023/08/01 12:01:23;;;;;;;;;;;25.80;99.90;;;;;;5055456;28;20271;-86
2023/08/01 12:03:58;;;;;;;;;;;25.60;99.90;;;;;;5056048;28;19917;-87
2023/08/01 12:06:30;;;;;;;;;;;26.00;99.90;;;;;;5054716;28;19916;-88
2023/08/01 12:09:09;;;;;;;;;;;26.60;99.90;;;;;;5058033;28;19920;-85
2023/08/01 12:11:40;;;;;;;;;;;26.70;99.90;;;;;;5056673;28;19920;-89
2023/08/01 12:14:10;;;;;;;;;;;26.80;99.90;;;;;;5053757;28;19924;-86
2023/08/01 12:16:45;;;;;;;;;;;26.70;99.90;;;;;;5068701;28;20005;-86
2023/08/01 12:19:20;;;;;;;;;;;26.20;99.90;;;;;;5054572;28;19920;-88
2023/08/01 12:21:48;;;;;;;;;;;25.40;99.90;;;;;;5054342;28;20041;-86
2023/08/01 12:24:17;;;;;;;;;;;24.40;99.90;;;;;;5055385;28;19917;-88
2023/08/01 12:26:48;;;;;;;;;;;23.70;99.90;;;;;;5057509;28;20031;-88
2023/08/01 12:29:19;;;;;;;;;;;23.20;99.90;;;;;;5059773;28;19974;-91
2023/08/01 12:31:50;;;;;;;;;;;22.70;99.90;;;;;;5060817;28;20357;-90
2023/08/01 12:34:15;;;;;;;;;;;22.30;99.90;;;;;;5061215;28;20396;-89
2023/08/01 12:36:46;;;;;;;;;;;22.20;99.90;;;;;;5056530;28;20251;-90
2023/08/01 12:39:16;;;;;;;;;;;22.50;99.90;;;;;;5054651;28;20368;-90
2023/08/01 12:41:42;;;;;;;;;;;22.80;99.90;;;;;;5057513;28;20089;-90
2023/08/01 12:44:08;;;;;;;;;;;22.80;99.90;;;;;;5060847;28;20008;-90
2023/08/01 12:46:34;;;;;;;;;;;22.70;99.90;;;;;;5057029;28;19917;-89
2023/08/01 12:49:01;;;;;;;;;;;22.50;99.90;;;;;;5062562;28;20011;-91
2023/08/01 12:51:31;;;;;;;;;;;22.40;99.90;;;;;;5065773;28;19913;-86
2023/08/01 12:53:58;;;;;;;;;;;22.30;99.90;;;;;;5045522;28;19947;-87
2023/08/01 12:56:26;;;;;;;;;;;22.20;99.90;;;;;;5059559;28;19938;-88
2023/08/01 12:58:52;;;;;;;;;;;21.90;99.90;;;;;;5058968;28;19921;-88
2023/08/01 13:01:17;;;;;;;;;;;21.70;99.90;;;;;;5057528;28;19923;-88
2023/08/01 13:03:43;;;;;;;;;;;21.70;99.90;;;;;;5060042;28;19913;-88
2023/08/01 13:06:14;;;;;;;;;;;21.60;99.90;;;;;;5060717;28;20268;-88
2023/08/01 13:08:43;;;;;;;;;;;21.70;99.90;;;;;;5057750;28;20019;-87
2023/08/01 13:11:18;;;;;;;;;;;21.90;99.90;;;;;;5055755;28;19917;-88
2023/08/01 13:13:45;;;;;;;;;;;22.20;99.90;;;;;;5058942;28;19919;-87
2023/08/01 13:16:11;;;;;;;;;;;23.10;99.90;;;;;;5054150;28;19959;-87
2023/08/01 13:18:43;;;;;;;;;;;24.10;99.90;;;;;;5056160;28;19916;-87
2023/08/01 13:21:09;;;;;;;;;;;24.70;99.90;;;;;;5056072;28;19924;-87
2023/08/01 13:23:38;;;;;;;;;;;24.80;99.90;;;;;;5059063;28;19916;-88
2023/08/01 13:26:08;;;;;;;;;;;24.80;99.90;;;;;;5056650;28;20376;-87
2023/08/01 13:28:38;;;;;;;;;;;24.20;99.90;;;;;;5057468;28;19986;-88
2023/08/01 13:31:07;;;;;;;;;;;23.60;99.90;;;;;;5054436;28;19916;-87
2023/08/01 13:33:43;;;;;;;;;;;23.30;99.90;;;;;;5041589;28;19921;-87
2023/08/01 13:36:16;;;;;;;;;;;23.80;99.90;;;;;;5059063;28;19921;-86
2023/08/01 13:38:43;;;;;;;;;;;25.00;99.90;;;;;;5055701;28;19928;-88
2023/08/01 13:41:09;;;;;;;;;;;25.40;99.90;;;;;;5054449;28;19917;-86
2023/08/01 13:43:38;;;;;;;;;;;25.10;99.90;;;;;;5054933;28;20055;-87
2023/08/01 13:46:22;;;;;;;;;;;24.80;99.90;;;;;;5059318;28;19920;-87
2023/08/01 13:48:48;;;;;;;;;;;24.40;99.90;;;;;;5055885;28;19916;-88
2023/08/01 13:51:14;;;;;;;;;;;24.20;99.90;;;;;;5054505;28;19917;-88
2023/08/01 13:53:42;;;;;;;;;;;24.20;99.90;;;;;;5056054;28;19925;-87
2023/08/01 13:56:11;;;;;;;;;;;24.30;99.90;;;;;;5058297;28;19978;-87
2023/08/01 13:58:40;;;;;;;;;;;23.80;99.90;;;;;;5055642;28;19939;-88
2023/08/01 14:01:12;;;;;;;;;;;23.50;99.90;;;;;;5041457;28;19939;-87
2023/08/01 14:03:42;;;;;;;;;;;23.00;99.90;;;;;;5056052;28;19920;-88
2023/08/01 14:06:12;;;;;;;;;;;22.70;99.90;;;;;;5054610;28;19908;-86
2023/08/01 14:08:38;;;;;;;;;;;22.70;99.90;;;;;;5055196;28;19955;-86
2023/08/01 14:11:06;;;;;;;;;;;22.60;99.90;;;;;;5043271;28;20550;-87
2023/08/01 14:13:34;;;;;;;;;;;22.70;99.90;;;;;;5055320;28;19970;-88
2023/08/01 14:16:08;;;;;;;;;;;23.00;99.90;;;;;;5060212;28;20316;-87
2023/08/01 14:18:40;;;;;;;;;;;23.20;99.90;;;;;;5058301;28;19920;-87
2023/08/01 14:21:12;;;;;;;;;;;23.40;99.90;;;;;;5042593;28;19969;-87
2023/08/01 14:23:45;;;;;;;;;;;23.50;99.90;;;;;;5055058;28;20023;-87
2023/08/01 14:26:15;;;;;;;;;;;23.50;99.90;;;;;;5051127;28;19958;-86
2023/08/01 14:28:46;;;;;;;;;;;23.70;99.90;;;;;;5059569;28;19921;-86
2023/08/01 14:31:14;;;;;;;;;;;23.90;99.90;;;;;;5056334;28;19908;-86
2023/08/01 14:33:43;;;;;;;;;;;23.80;99.90;;;;;;5041837;28;19927;-86
2023/08/01 14:36:13;;;;;;;;;;;23.80;99.90;;;;;;5062431;28;20576;-87